Time;durP1;ratioP1;P1;durP2;ratioP2;P2;SDS_P1;SDS_P2;PMS_P1;PMS_P2;Temp;Humidity;BMP_temperature;BMP_pressure;BME280_temperature;BME280_humidity;BME280_pressure;Samples;Min_cycle;Max_cycle;Signal;HPM_P1;HPM_P2
2022/12/04 00:00:15;;;;;;;42.43;26.00;;;3.80;65.90;;;6.57;49.59;102099.00;5074109;28;20199;-57
2022/12/04 00:02:43;;;;;;;39.73;24.80;;;3.80;66.20;;;6.53;49.16;102092.34;5074415;28;20218;-59
2022/12/04 00:05:11;;;;;;;40.13;26.13;;;3.80;66.80;;;6.49;49.30;102093.50;5074110;28;20201;-56
2022/12/04 00:07:38;;;;;;;36.77;24.07;;;3.80;66.10;;;6.46;50.21;102091.16;5073819;28;20213;-59
2022/12/04 00:10:07;;;;;;;40.10;24.83;;;3.80;66.30;;;6.44;50.56;102095.63;5077434;28;20198;-58
2022/12/04 00:12:34;;;;;;;40.70;24.77;;;3.70;67.20;;;6.40;50.41;102095.97;5078118;28;20229;-56
2022/12/04 00:15:01;;;;;;;44.63;26.13;;;3.70;66.40;;;6.36;49.72;102092.78;5073716;28;20198;-58
2022/12/04 00:17:49;;;;;;;39.83;24.30;;;3.60;66.60;;;6.39;50.50;102089.09;5073392;28;20281;-58
2022/12/04 00:20:17;;;;;;;37.20;23.97;;;3.60;67.00;;;6.40;50.32;102086.34;5073353;28;20262;-57
2022/12/04 00:22:44;;;;;;;44.57;27.23;;;3.70;67.00;;;6.44;50.01;102085.16;5073553;28;20217;-57
2022/12/04 00:25:11;;;;;;;41.73;24.60;;;3.60;67.10;;;6.52;50.35;102085.44;5073629;28;20202;-58
2022/12/04 00:27:38;;;;;;;37.10;24.50;;;3.70;67.40;;;6.61;49.74;102084.75;5073300;28;20290;-58
2022/12/04 00:30:07;;;;;;;40.63;24.20;;;3.70;67.10;;;6.64;49.78;102083.69;5073751;28;20239;-62
2022/12/04 00:32:35;;;;;;;45.57;28.80;;;3.80;66.60;;;6.57;49.60;102083.31;5071629;28;20223;-59
2022/12/04 00:35:04;;;;;;;37.33;24.87;;;3.80;66.60;;;6.60;50.20;102088.31;5073325;28;20191;-57
2022/12/04 00:37:32;;;;;;;37.63;23.93;;;3.70;66.90;;;6.63;49.74;102077.59;5077213;28;20189;-58
2022/12/04 00:39:59;;;;;;;39.37;24.30;;;3.80;67.00;;;6.66;50.11;102077.38;5094378;28;20193;-58
2022/12/04 00:42:26;;;;;;;35.97;23.17;;;3.80;66.90;;;6.66;49.97;102082.63;5093710;28;20213;-58
2022/12/04 00:44:53;;;;;;;38.43;25.10;;;3.80;66.70;;;6.66;49.80;102069.53;5094754;28;20250;-58
2022/12/04 00:47:20;;;;;;;41.73;25.70;;;3.80;66.60;;;6.63;49.85;102077.59;5088064;28;20194;-56
2022/12/04 00:49:47;;;;;;;39.33;24.40;;;3.80;66.60;;;6.67;50.16;102073.84;5073907;28;20235;-59
2022/12/04 00:52:15;;;;;;;39.67;24.23;;;3.80;67.00;;;6.70;50.28;102070.97;5073333;28;20216;-59
2022/12/04 00:54:42;;;;;;;36.80;24.30;;;3.90;67.10;;;6.75;50.01;102070.66;5074117;28;20662;-59
2022/12/04 00:57:09;;;;;;;37.93;24.40;;;3.90;67.30;;;6.78;49.88;102079.06;5074405;28;20191;-59
2022/12/04 00:59:37;;;;;;;40.47;26.27;;;3.90;66.70;;;6.70;49.85;102073.56;5074689;28;20186;-57
2022/12/04 01:02:04;;;;;;;38.87;25.17;;;3.90;66.20;;;6.66;49.37;102082.63;5074357;28;20210;-60
2022/12/04 01:04:32;;;;;;;37.20;24.43;;;3.90;66.40;;;6.64;50.05;102079.28;5077767;28;20194;-61
2022/12/04 01:06:59;;;;;;;41.57;25.00;;;3.90;66.40;;;6.65;49.55;102080.97;5077464;28;20634;-59
2022/12/04 01:09:32;;;;;;;38.57;24.43;;;3.90;66.80;;;6.67;50.45;102076.44;5078723;28;20214;-59
2022/12/04 01:11:59;;;;;;;36.13;22.97;;;3.90;66.90;;;6.72;50.40;102076.94;5079987;28;20270;-59
2022/12/04 01:14:26;;;;;;;38.80;24.43;;;3.90;67.10;;;6.75;49.77;102076.69;5084107;28;20198;-60
2022/12/04 01:16:53;;;;;;;38.83;24.07;;;3.90;67.00;;;6.80;49.88;102078.94;5082007;28;20193;-58
2022/12/04 01:19:21;;;;;;;37.00;24.43;;;3.90;67.30;;;6.85;50.02;102068.16;5083347;28;20254;-59
2022/12/04 01:21:48;;;;;;;38.30;24.00;;;4.00;67.20;;;6.91;50.35;102075.53;5081750;28;20209;-58
2022/12/04 01:24:15;;;;;;;37.37;24.43;;;4.00;67.00;;;6.90;49.90;102069.44;5081443;28;20194;-59
2022/12/04 01:26:43;;;;;;;40.97;24.53;;;4.00;66.80;;;6.87;49.49;102069.69;5073039;28;20288;-57
2022/12/04 01:29:10;;;;;;;37.03;24.17;;;4.00;66.60;;;6.82;49.77;102067.41;5072640;28;20277;-58
2022/12/04 01:31:37;;;;;;;37.37;24.40;;;4.00;66.50;;;6.79;49.73;102075.53;5072718;28;20214;-58
2022/12/04 01:34:06;;;;;;;39.53;24.13;;;4.00;66.60;;;6.78;49.86;102073.84;5073090;28;20197;-58
2022/12/04 01:36:33;;;;;;;35.63;23.97;;;4.00;66.90;;;6.78;50.00;102060.75;5073495;28;20191;-57
2022/12/04 01:39:00;;;;;;;39.40;25.70;;;4.00;67.10;;;6.77;50.25;102069.53;5089239;28;20304;-59
2022/12/04 01:41:30;;;;;;;37.90;24.03;;;3.90;66.80;;;6.77;50.07;102068.75;5093241;28;20270;-57
2022/12/04 01:44:16;;;;;;;39.33;24.23;;;4.00;67.10;;;6.69;49.97;102056.22;5092090;28;20197;-57
2022/12/04 01:46:45;;;;;;;38.87;24.23;;;3.90;66.90;;;6.62;50.86;102060.28;5094228;28;20697;-58
2022/12/04 01:49:16;;;;;;;36.03;23.20;;;3.90;67.00;;;6.61;50.46;102058.59;5076598;28;20213;-56
2022/12/04 01:51:48;;;;;;;39.97;25.27;;;3.90;67.30;;;6.64;50.18;102060.13;5076834;28;20218;-56
2022/12/04 01:54:27;;;;;;;35.83;23.70;;;3.80;67.60;;;6.64;50.52;102055.75;5076484;28;20175;-56
2022/12/04 01:57:00;;;;;;;41.57;25.20;;;3.90;67.70;;;6.66;50.08;102056.47;5076685;28;20185;-57
2022/12/04 01:59:37;;;;;;;36.77;23.40;;;3.80;67.60;;;6.69;50.84;102056.22;5076706;28;20215;-59
2022/12/04 02:02:08;;;;;;;39.40;25.90;;;3.90;68.10;;;6.76;50.73;102046.97;5076407;28;20708;-57
2022/12/04 02:04:38;;;;;;;41.13;25.60;;;3.90;68.20;;;6.75;50.48;102047.91;5076287;28;20214;-58
2022/12/04 02:07:06;;;;;;;46.57;27.17;;;3.90;67.50;;;6.70;50.22;102047.41;5076562;28;20208;-58
2022/12/04 02:09:34;;;;;;;38.77;23.90;;;3.90;67.40;;;6.61;51.08;102047.28;5076469;28;20264;-59
2022/12/04 02:12:17;;;;;;;42.40;25.97;;;3.90;67.50;;;6.56;50.79;102045.03;5075728;28;20209;-58
2022/12/04 02:15:00;;;;;;;38.23;24.07;;;3.90;67.50;;;6.52;50.64;102054.06;5076254;28;20238;-58
2022/12/04 02:17:38;;;;;;;40.00;23.77;;;3.80;67.80;;;6.47;51.27;102058.81;5076480;28;20266;-59
2022/12/04 02:20:22;;;;;;;36.17;23.63;;;3.80;68.10;;;6.48;51.32;102052.63;5076077;28;20192;-58
2022/12/04 02:23:38;;;;;;;39.73;24.03;;;3.80;68.50;;;6.51;50.94;102055.00;5076285;28;20274;-59
2022/12/04 02:26:36;;;;;;;41.27;25.33;;;3.80;68.70;;;6.54;51.48;102046.09;5074713;28;20197;-60
2022/12/04 02:29:15;;;;;;;41.30;24.30;;;3.80;68.70;;;6.55;50.86;102055.63;5075810;28;20276;-59
2022/12/04 02:31:52;;;;;;;39.97;24.00;;;3.80;68.60;;;6.54;51.48;102046.94;5075590;28;20205;-58
2022/12/04 02:34:27;;;;;;;41.67;25.47;;;3.80;68.80;;;6.56;50.87;102052.06;5075700;28;20561;-57
2022/12/04 02:37:01;;;;;;;40.93;25.03;;;3.80;68.90;;;6.49;51.91;102054.28;5075845;28;20202;-57
2022/12/04 02:39:40;;;;;;;40.37;24.60;;;3.70;68.80;;;6.42;51.46;102053.06;5095422;28;20726;-55
2022/12/04 02:42:14;;;;;;;45.90;27.07;;;3.70;68.80;;;6.37;51.32;102060.44;5094664;28;20771;-58
2022/12/04 02:44:48;;;;;;;41.57;24.40;;;3.70;69.20;;;6.35;52.15;102057.09;5095428;28;20250;-59
2022/12/04 02:47:22;;;;;;;39.23;24.87;;;3.60;69.40;;;6.35;51.79;102062.34;5081597;28;20671;-57
2022/12/04 02:49:56;;;;;;;43.20;25.60;;;3.60;69.80;;;6.36;51.71;102053.56;5075074;28;20656;-59
2022/12/04 02:52:30;;;;;;;46.53;27.93;;;3.60;69.90;;;6.34;51.98;102068.53;5075100;28;20219;-57
2022/12/04 02:55:04;;;;;;;41.63;25.30;;;3.60;69.90;;;6.34;52.60;102063.31;5075345;28;20181;-57
2022/12/04 02:57:41;;;;;;;41.90;25.90;;;3.60;69.90;;;6.33;52.46;102059.00;5075124;28;20700;-59
2022/12/04 03:00:12;;;;;;;38.60;24.17;;;3.60;70.10;;;6.34;52.34;102054.63;5074938;28;20174;-56
2022/12/04 03:02:50;;;;;;;43.87;26.30;;;3.60;70.20;;;6.38;52.96;102054.28;5074711;28;20251;-65
2022/12/04 03:05:23;;;;;;;43.27;25.83;;;3.60;70.40;;;6.42;52.53;102058.31;5075235;28;20233;-59
2022/12/04 03:07:55;;;;;;;43.03;26.77;;;3.60;70.20;;;6.44;52.25;102051.19;5074777;28;20579;-58
2022/12/04 03:10:29;;;;;;;43.63;27.10;;;3.60;70.30;;;6.44;52.69;102048.56;5090404;28;20193;-59
2022/12/04 03:13:05;;;;;;;42.13;24.73;;;3.70;70.30;;;6.41;52.96;102045.38;5095572;28;20539;-59
2022/12/04 03:16:00;;;;;;;40.33;25.60;;;3.70;70.30;;;6.39;52.45;102047.25;5096833;28;20181;-59
2022/12/04 03:18:33;;;;;;;37.00;23.53;;;3.70;70.10;;;6.31;52.06;102047.84;5095062;28;20196;-57
2022/12/04 03:21:07;;;;;;;48.27;27.47;;;3.70;70.10;;;6.29;52.29;102043.66;5074367;28;20179;-57
2022/12/04 03:23:41;;;;;;;40.10;25.57;;;3.60;70.20;;;6.33;52.52;102050.31;5075107;28;20194;-56
2022/12/04 03:26:17;;;;;;;39.17;25.67;;;3.60;70.60;;;6.37;53.40;102044.75;5074310;28;20642;-57
2022/12/04 03:28:55;;;;;;;39.87;24.97;;;3.60;70.80;;;6.36;52.44;102048.31;5074645;28;20198;-60
2022/12/04 03:31:34;;;;;;;40.73;26.03;;;3.70;70.90;;;6.38;53.27;102046.41;5074190;28;20205;-57
2022/12/04 03:34:05;;;;;;;49.87;26.77;;;3.60;71.00;;;6.43;53.04;102039.06;5075080;28;20260;-57
2022/12/04 03:36:36;;;;;;;40.43;25.80;;;3.70;71.40;;;6.46;52.84;102036.22;5074356;28;20216;-59
2022/12/04 03:39:14;;;;;;;39.90;25.83;;;3.70;71.30;;;6.46;53.15;102025.78;5090522;28;20192;-57
2022/12/04 03:42:01;;;;;;;37.90;24.60;;;3.70;71.40;;;6.38;52.85;102028.13;5094497;28;20688;-59
2022/12/04 03:44:38;;;;;;;45.50;27.03;;;3.70;71.40;;;6.38;53.07;102025.50;5054372;28;20240;-58
2022/12/04 03:47:13;;;;;;;43.10;26.57;;;3.70;71.50;;;6.25;53.83;102040.47;5058226;28;20671;-58
2022/12/04 03:49:48;;;;;;;41.37;26.23;;;3.60;71.60;;;6.05;54.47;102028.88;5073423;28;20217;-59
2022/12/04 03:52:23;;;;;;;43.67;26.80;;;3.60;71.90;;;5.98;54.25;102032.03;5074072;28;20690;-58
2022/12/04 03:54:56;;;;;;;42.10;26.53;;;3.50;72.90;;;5.99;54.75;102033.72;5074681;28;20238;-62
2022/12/04 03:57:29;;;;;;;48.60;26.27;;;3.50;72.60;;;5.92;55.67;102032.50;5074374;28;20194;-55
2022/12/04 04:00:05;;;;;;;43.20;26.17;;;3.40;72.70;;;5.83;54.92;102033.13;5074740;28;20194;-57
2022/12/04 04:02:42;;;;;;;42.40;26.00;;;3.30;73.10;;;5.87;55.42;102034.63;5074321;28;20205;-57
2022/12/04 04:05:12;;;;;;;42.37;25.90;;;3.30;73.40;;;5.93;55.47;102028.94;5079117;28;20185;-58
2022/12/04 04:07:45;;;;;;;41.50;25.87;;;3.30;73.60;;;5.97;55.22;102025.13;5085900;28;20189;-57
2022/12/04 04:10:17;;;;;;;46.90;27.13;;;3.30;73.70;;;5.93;55.61;102027.16;5088339;28;20742;-57
2022/12/04 04:24:28;;;;;;;46.23;25.63;;;3.40;74.20;;;6.12;55.85;102034.47;5073637;28;20191;-58
2022/12/04 04:26:58;;;;;;;47.77;28.63;;;3.40;75.00;;;6.13;54.88;102030.91;5073616;28;20199;-58
2022/12/04 04:29:26;;;;;;;43.57;25.97;;;3.40;74.20;;;6.20;55.41;102032.13;5073611;28;20552;-56
2022/12/04 04:32:02;;;;;;;44.00;25.87;;;3.50;74.40;;;6.26;55.29;102023.81;5073184;28;20217;-58
2022/12/04 04:34:45;;;;;;;37.80;24.37;;;3.50;74.50;;;6.29;55.09;102022.75;5073978;28;20546;-58
2022/12/04 04:37:25;;;;;;;43.63;26.23;;;3.50;74.40;;;6.26;55.27;102025.59;5072874;28;20203;-56
2022/12/04 04:40:00;;;;;;;42.37;25.40;;;3.50;74.20;;;6.24;55.62;102027.50;5079277;28;20674;-56
2022/12/04 04:42:33;;;;;;;38.80;23.60;;;3.50;74.30;;;6.25;56.03;102024.78;5073169;28;20268;-57
2022/12/04 04:45:10;;;;;;;43.93;26.27;;;3.50;74.50;;;6.20;55.74;102026.06;5073586;28;20183;-57
2022/12/04 04:47:44;;;;;;;43.03;25.97;;;3.50;74.30;;;6.14;55.88;102029.94;5073951;28;20196;-57
2022/12/04 04:50:16;;;;;;;39.50;24.73;;;3.50;74.10;;;6.11;55.35;102033.63;5075777;28;20591;-59
2022/12/04 04:52:48;;;;;;;42.00;26.30;;;3.50;74.20;;;6.10;55.82;102034.59;5073322;28;20220;-58
2022/12/04 04:55:18;;;;;;;42.20;25.60;;;3.50;74.30;;;6.12;55.44;102029.25;5073675;28;20585;-58
2022/12/04 04:57:45;;;;;;;45.63;26.30;;;3.50;74.60;;;6.09;56.26;102038.13;5073615;28;20626;-57
2022/12/04 05:00:16;;;;;;;42.00;24.97;;;3.50;74.50;;;6.10;55.65;102039.81;5073606;28;20190;-57
2022/12/04 05:02:43;;;;;;;41.47;25.73;;;3.40;74.50;;;6.13;56.15;102038.75;5073308;28;20220;-57
2022/12/04 05:05:13;;;;;;;39.40;24.00;;;3.50;74.70;;;6.19;56.18;102035.69;5073789;28;20189;-57
2022/12/04 05:07:40;;;;;;;42.53;25.97;;;3.50;74.90;;;6.18;56.08;102043.63;5073821;28;20240;-56
2022/12/04 05:10:09;;;;;;;44.07;26.63;;;3.50;74.60;;;6.16;55.26;102040.31;5085672;28;20216;-59
2022/12/04 05:12:36;;;;;;;39.70;23.50;;;3.50;74.50;;;6.19;55.38;102035.69;5092882;28;20693;-55
2022/12/04 05:15:05;;;;;;;40.43;24.53;;;3.40;74.60;;;6.21;55.00;102044.22;5094738;28;20192;-57
2022/12/04 05:17:34;;;;;;;41.60;25.00;;;3.50;74.60;;;6.19;55.82;102043.50;5094305;28;20196;-59
2022/12/04 05:20:01;;;;;;;40.03;24.63;;;3.50;74.60;;;6.25;55.25;102037.00;5081183;28;20187;-58
2022/12/04 05:22:32;;;;;;;41.57;25.17;;;3.50;74.80;;;6.26;55.06;102036.88;5078542;28;20217;-59
2022/12/04 05:24:59;;;;;;;41.27;25.20;;;3.50;74.70;;;6.22;55.60;102038.06;5076737;28;20652;-57
2022/12/04 05:27:29;;;;;;;40.93;24.47;;;3.50;74.50;;;6.24;55.48;102038.78;5077240;28;20247;-59
2022/12/04 05:29:57;;;;;;;42.80;26.17;;;3.50;74.60;;;6.27;56.17;102041.19;5077012;28;20218;-59
2022/12/04 05:32:28;;;;;;;37.87;23.60;;;3.50;74.70;;;6.28;55.52;102034.97;5077089;28;20217;-55
2022/12/04 05:34:57;;;;;;;48.03;27.00;;;3.50;74.60;;;6.30;55.60;102040.13;5077140;28;20219;-58
2022/12/04 05:37:24;;;;;;;38.43;23.40;;;3.60;74.60;;;6.29;56.09;102041.06;5079507;28;20221;-58
2022/12/04 05:39:53;;;;;;;38.67;24.00;;;3.50;74.40;;;6.35;55.33;102046.66;5097322;28;20625;-57
2022/12/04 05:42:21;;;;;;;39.33;23.07;;;3.60;74.70;;;6.35;55.87;102044.03;5099413;28;20216;-60
2022/12/04 05:44:49;;;;;;;39.17;24.30;;;3.60;74.50;;;6.34;55.83;102044.16;5100961;28;20223;-61
2022/12/04 05:47:16;;;;;;;40.33;24.77;;;3.60;74.30;;;6.38;55.07;102051.66;5093944;28;20705;-59
2022/12/04 05:49:43;;;;;;;36.67;23.33;;;3.60;74.50;;;6.35;55.87;102046.66;5080292;28;20238;-59
2022/12/04 05:52:11;;;;;;;40.97;24.50;;;3.60;74.30;;;6.29;55.56;102047.13;5082687;28;20223;-60
2022/12/04 05:54:39;;;;;;;42.80;24.30;;;3.60;74.30;;;6.32;55.51;102044.28;5079306;28;20212;-57
2022/12/04 05:57:07;;;;;;;40.63;23.40;;;3.60;74.20;;;6.31;55.73;102050.44;5077333;28;20197;-59
2022/12/04 05:59:35;;;;;;;40.93;24.43;;;3.60;74.20;;;6.30;55.36;102054.00;5078204;28;20528;-58
2022/12/04 06:02:02;;;;;;;35.67;24.53;;;3.60;74.30;;;6.33;55.51;102053.78;5077368;28;20267;-59
2022/12/04 06:04:29;;;;;;;35.93;24.70;;;3.70;74.40;;;6.33;56.01;102047.72;5078225;28;20224;-59
2022/12/04 06:06:56;;;;;;;38.90;23.93;;;3.60;74.30;;;6.29;55.20;102049.72;5076219;28;20658;-58
2022/12/04 06:09:23;;;;;;;39.43;24.77;;;3.60;74.20;;;6.33;56.17;102043.31;5081274;28;20258;-60
2022/12/04 06:11:50;;;;;;;39.60;25.00;;;3.70;74.50;;;6.33;55.07;102040.69;5095703;28;20214;-57
2022/12/04 06:14:18;;;;;;;40.30;22.10;;;3.70;74.60;;;6.33;56.27;102042.47;5096607;28;20189;-57
2022/12/04 06:16:46;;;;;;;37.67;23.37;;;3.70;74.60;;;6.35;55.83;102040.56;5096959;28;20193;-58
2022/12/04 06:19:16;;;;;;;39.23;23.33;;;3.70;74.60;;;6.35;55.89;102046.66;5090260;28;20605;-58
2022/12/04 06:21:49;;;;;;;36.00;23.40;;;3.70;74.60;;;6.35;55.67;102044.03;5075991;28;20260;-57
2022/12/04 06:24:20;;;;;;;40.50;24.67;;;3.70;74.70;;;6.35;55.73;102041.41;5076174;28;20205;-57
2022/12/04 06:26:49;;;;;;;40.23;24.40;;;3.70;74.60;;;6.35;56.12;102051.88;5076499;28;20295;-58
2022/12/04 06:29:37;;;;;;;39.73;23.00;;;3.70;74.70;;;6.38;55.35;102048.19;5076084;28;20222;-61
2022/12/04 06:32:04;;;;;;;39.77;23.57;;;3.70;74.60;;;6.38;55.75;102049.03;5074579;28;20247;-57
2022/12/04 06:34:31;;;;;;;38.47;23.67;;;3.70;74.60;;;6.37;55.21;102044.75;5075672;28;20201;-57
2022/12/04 06:36:58;;;;;;;40.93;24.43;;;3.70;74.50;;;6.32;55.32;102056.50;5075962;28;20217;-59
2022/12/04 06:39:25;;;;;;;42.83;25.20;;;3.70;74.50;;;6.21;56.56;102054.69;5094992;28;20193;-57
2022/12/04 06:41:52;;;;;;;37.30;23.60;;;3.70;74.50;;;6.27;56.21;102064.69;5095967;28;20218;-60
2022/12/04 06:44:19;;;;;;;40.33;24.13;;;3.70;74.80;;;6.30;55.91;102054.00;5095574;28;20194;-57
2022/12/04 06:46:48;;;;;;;39.13;24.73;;;3.70;74.70;;;6.36;56.18;102064.00;5086191;28;20205;-57
2022/12/04 06:49:16;;;;;;;37.13;23.97;;;3.70;74.80;;;6.44;56.18;102066.06;5075332;28;20195;-59
2022/12/04 06:51:43;;;;;;;37.33;23.07;;;3.70;75.00;;;6.51;55.73;102068.06;5075227;28;20210;-59
2022/12/04 06:54:12;;;;;;;37.47;22.93;;;3.80;75.00;;;6.59;55.44;102064.88;5075405;28;20268;-56
2022/12/04 06:56:39;;;;;;;38.63;23.53;;;3.70;74.80;;;6.57;55.09;102066.78;5075786;28;20205;-58
2022/12/04 06:59:06;;;;;;;39.13;24.10;;;3.80;74.60;;;6.60;54.97;102070.03;5076003;28;20253;-58
2022/12/04 07:01:34;;;;;;;40.33;23.50;;;3.80;74.70;;;6.61;55.30;102069.06;5075338;28;20211;-59
2022/12/04 07:04:03;;;;;;;41.00;24.87;;;3.80;74.60;;;6.62;55.47;102075.13;5075474;28;20249;-57
2022/12/04 07:06:33;;;;;;;37.27;23.40;;;3.80;74.40;;;6.60;55.45;102072.63;5073937;28;20246;-58
2022/12/04 07:09:04;;;;;;;39.27;23.37;;;3.80;74.40;;;6.59;55.85;102080.56;5074889;28;20194;-58
2022/12/04 07:11:31;;;;;;;40.57;24.10;;;3.80;74.40;;;6.61;55.83;102079.50;5074703;28;20563;-58
2022/12/04 07:13:58;;;;;;;37.77;23.83;;;3.80;74.60;;;6.62;55.80;102089.03;5074848;28;20249;-59
2022/12/04 07:16:27;;;;;;;41.00;24.97;;;3.90;74.70;;;6.59;55.40;102086.66;5075154;28;20193;-59
2022/12/04 07:18:56;;;;;;;36.73;23.17;;;3.90;74.50;;;6.63;55.20;102082.84;5074483;28;20195;-59
2022/12/04 07:21:27;;;;;;;40.87;25.53;;;3.80;74.60;;;6.63;55.59;102080.22;5074886;28;20669;-59
2022/12/04 07:23:58;;;;;;;41.40;24.07;;;3.90;74.50;;;6.66;55.17;102082.63;5073839;28;20181;-59
2022/12/04 07:26:28;;;;;;;37.57;24.47;;;3.90;74.50;;;6.68;55.06;102075.47;5074844;28;20181;-57
2022/12/04 07:28:56;;;;;;;36.97;24.07;;;3.90;74.40;;;6.67;54.71;102078.22;5074495;28;20201;-60
2022/12/04 07:31:26;;;;;;;41.30;24.83;;;3.90;74.20;;;6.70;55.25;102083.22;5073876;28;20216;-56
2022/12/04 07:33:55;;;;;;;36.13;22.57;;;3.90;74.40;;;6.72;55.46;102076.94;5074481;28;20267;-57
2022/12/04 07:36:25;;;;;;;36.37;22.73;;;3.90;74.40;;;6.71;54.61;102075.25;5074248;28;20195;-58
2022/12/04 07:38:54;;;;;;;39.30;23.50;;;4.00;74.10;;;6.75;55.53;102081.09;5089031;28;20238;-58
2022/12/04 07:41:21;;;;;;;40.77;23.57;;;4.00;74.10;;;6.74;54.65;102082.88;5094874;28;20208;-57
2022/12/04 07:43:48;;;;;;;39.80;24.70;;;4.00;74.00;;;6.70;55.19;102078.81;5079084;28;20535;-56
2022/12/04 07:46:19;;;;;;;40.60;23.67;;;4.00;74.60;;;6.67;54.67;102068.59;5074495;28;20297;-57
2022/12/04 07:48:46;;;;;;;40.13;24.17;;;4.00;74.10;;;6.70;55.78;102078.81;5074676;28;20186;-58
2022/12/04 07:51:16;;;;;;;38.93;23.13;;;4.00;74.20;;;6.77;55.42;102079.19;5074025;28;20209;-58
2022/12/04 07:53:45;;;;;;;43.83;24.53;;;4.00;74.10;;;6.80;54.83;102079.78;5074324;28;20186;-58
2022/12/04 07:56:14;;;;;;;36.93;24.20;;;4.00;74.00;;;6.80;54.40;102085.00;5073185;28;20189;-59
2022/12/04 07:58:41;;;;;;;36.93;22.53;;;4.00;73.90;;;6.87;54.75;102079.34;5074787;28;20583;-57
2022/12/04 08:01:11;;;;;;;39.60;23.97;;;4.00;74.10;;;6.91;54.96;102075.53;5074026;28;20189;-57
2022/12/04 08:03:40;;;;;;;42.70;25.23;;;4.00;74.10;;;6.87;54.70;102071.47;5074067;28;20671;-57
2022/12/04 08:06:15;;;;;;;39.30;24.57;;;4.10;73.80;;;6.91;54.73;102078.13;5074154;28;20229;-58
2022/12/04 08:08:44;;;;;;;38.50;23.60;;;4.10;73.90;;;6.88;53.98;102080.97;5073759;28;20200;-57
2022/12/04 08:11:14;;;;;;;36.57;22.63;;;4.10;73.60;;;6.86;54.38;102080.28;5073065;28;20223;-57
2022/12/04 08:13:41;;;;;;;36.57;23.00;;;4.10;73.60;;;6.85;54.21;102078.63;5074565;28;20197;-58
2022/12/04 08:16:11;;;;;;;39.13;23.27;;;4.10;73.50;;;6.85;54.88;102079.44;5074033;28;20189;-58
2022/12/04 08:18:39;;;;;;;39.90;22.90;;;4.10;73.40;;;6.83;54.36;102079.56;5074957;28;20642;-58
2022/12/04 08:21:09;;;;;;;39.33;23.30;;;4.10;73.40;;;6.83;54.69;102078.72;5074220;28;20255;-58
2022/12/04 08:23:38;;;;;;;40.03;23.67;;;4.10;73.50;;;6.86;54.62;102082.88;5075992;28;20720;-58
2022/12/04 08:26:08;;;;;;;38.03;22.60;;;4.10;73.40;;;6.87;54.81;102084.56;5074496;28;20202;-58
2022/12/04 08:28:36;;;;;;;36.80;23.00;;;4.10;73.40;;;6.85;54.80;102096.94;5073804;28;20659;-57
2022/12/04 08:31:05;;;;;;;36.13;22.37;;;4.10;73.40;;;6.86;55.00;102088.97;5073112;28;20214;-58
2022/12/04 08:33:33;;;;;;;39.13;23.73;;;4.10;73.50;;;6.83;54.92;102100.50;5073455;28;20198;-59
2022/12/04 08:36:00;;;;;;;38.90;23.73;;;4.10;73.40;;;6.79;55.01;102093.84;5073438;28;20222;-58
2022/12/04 08:38:27;;;;;;;38.73;23.30;;;4.10;73.40;;;6.76;54.68;102101.06;5082122;28;20501;-58
2022/12/04 08:40:59;;;;;;;40.00;23.33;;;4.10;73.30;;;6.70;54.58;102099.75;5072929;28;20250;-58
2022/12/04 08:43:27;;;;;;;37.60;22.23;;;4.10;73.50;;;6.68;54.56;102106.88;5073584;28;20183;-59
2022/12/04 08:45:56;;;;;;;40.20;24.43;;;4.00;73.50;;;6.70;55.16;102099.75;5073224;28;20196;-58
2022/12/04 08:48:23;;;;;;;36.83;23.40;;;4.00;73.80;;;6.75;54.58;102108.06;5072881;28;20281;-62
2022/12/04 08:50:50;;;;;;;37.53;23.37;;;4.00;73.80;;;6.81;54.84;102112.03;5068007;28;20713;-60
2022/12/04 08:53:17;;;;;;;37.43;22.47;;;4.00;73.90;;;6.80;54.50;102113.78;5086067;28;20218;-62
2022/12/04 08:55:45;;;;;;;33.47;21.40;;;4.10;73.80;;;6.83;54.44;102108.34;5093544;28;20244;-57
2022/12/04 08:58:12;;;;;;;36.43;21.67;;;4.10;73.90;;;6.91;54.52;102113.00;5096217;28;20201;-58
2022/12/04 09:00:40;;;;;;;33.63;22.10;;;4.10;74.10;;;6.95;54.91;102100.50;5087942;28;20199;-57
2022/12/04 09:03:11;;;;;;;38.17;22.53;;;4.10;73.90;;;6.93;54.42;102099.78;5085108;28;20244;-57
2022/12/04 09:05:38;;;;;;;39.23;21.90;;;4.20;73.70;;;6.99;54.32;102099.34;5093697;28;20219;-57
2022/12/04 09:08:05;;;;;;;36.73;23.17;;;4.20;73.80;;;6.97;54.97;102093.34;5082180;28;20635;-58
2022/12/04 09:10:34;;;;;;;37.93;23.37;;;4.20;73.50;;;6.93;54.99;102100.63;5094867;28;20208;-59
2022/12/04 09:13:01;;;;;;;35.03;21.93;;;4.20;73.50;;;6.93;54.87;102084.94;5100476;28;20262;-59
2022/12/04 09:15:29;;;;;;;33.73;21.87;;;4.20;73.40;;;6.99;54.88;102091.47;5100502;28;20250;-58
2022/12/04 09:17:58;;;;;;;35.83;22.03;;;4.20;73.50;;;7.06;54.78;102085.63;5091186;28;20198;-58
2022/12/04 09:20:25;;;;;;;35.10;22.50;;;4.20;73.70;;;7.17;54.22;102092.66;5083167;28;20188;-57
2022/12/04 09:22:51;;;;;;;37.03;22.80;;;4.30;73.70;;;7.22;54.28;102087.91;5080022;28;20212;-60
2022/12/04 09:25:30;;;;;;;36.17;22.17;;;4.30;73.60;;;7.25;54.18;102108.63;5071103;28;20196;-58
2022/12/04 09:27:58;;;;;;;35.07;23.03;;;4.30;73.50;;;7.19;54.55;102101.22;5071787;28;20186;-59
2022/12/04 09:30:24;;;;;;;39.77;23.27;;;4.40;73.20;;;7.11;54.31;102093.13;5093648;28;20205;-58
2022/12/04 09:32:52;;;;;;;38.40;23.50;;;4.40;73.10;;;7.11;54.21;102098.34;5078260;28;20222;-58
2022/12/04 09:35:20;;;;;;;37.87;22.97;;;4.40;73.20;;;7.12;54.58;102090.41;5080030;28;20213;-59
2022/12/04 09:37:47;;;;;;;35.60;22.07;;;4.40;73.30;;;7.14;54.35;102083.25;5082661;28;20190;-57
2022/12/04 09:40:25;;;;;;;36.00;24.10;;;4.40;73.30;;;7.16;53.65;102088.38;5100333;28;20186;-60
2022/12/04 09:43:13;;;;;;;35.23;22.07;;;4.40;73.40;;;7.13;54.54;102086.00;5098633;28;20237;-58
2022/12/04 09:45:47;;;;;;;33.73;22.43;;;4.40;73.30;;;7.13;54.16;102080.78;5071943;28;20209;-60
2022/12/04 09:48:18;;;;;;;33.73;21.83;;;4.40;73.50;;;7.16;54.59;102075.28;5079979;28;20562;-60
2022/12/04 09:50:48;;;;;;;37.50;23.63;;;4.40;73.60;;;7.10;54.69;102071.38;5077907;28;20217;-57
2022/12/04 09:53:24;;;;;;;42.13;23.27;;;4.40;73.50;;;7.03;55.13;102064.09;5079415;28;20553;-58
2022/12/04 09:55:59;;;;;;;31.43;20.97;;;4.40;73.50;;;7.02;54.94;102063.28;5080267;28;20203;-58
2022/12/04 09:58:39;;;;;;;36.27;23.37;;;4.40;73.50;;;7.06;55.00;102066.50;5079873;28;20186;-59
2022/12/04 10:01:19;;;;;;;33.50;21.47;;;4.40;73.70;;;7.14;54.78;102067.56;5079556;28;20199;-58
2022/12/04 10:03:46;;;;;;;36.70;22.30;;;4.40;73.90;;;7.20;54.71;102063.63;5080172;28;20187;-55
2022/12/04 10:06:21;;;;;;;38.80;24.47;;;4.40;73.80;;;7.19;54.46;102069.81;5079177;28;20598;-58
2022/12/04 10:08:59;;;;;;;35.30;21.70;;;4.40;73.70;;;7.24;54.82;102067.66;5075862;28;20595;-58
2022/12/04 10:11:47;;;;;;;35.13;22.60;;;4.50;73.80;;;7.31;54.78;102072.31;5096164;28;20222;-58
2022/12/04 10:14:44;;;;;;;35.50;22.13;;;4.50;73.80;;;7.35;54.43;102072.88;5096544;28;20577;-57
2022/12/04 10:17:36;;;;;;;35.07;22.57;;;4.50;73.80;;;7.31;54.15;102068.84;5082957;28;20201;-57
2022/12/04 10:20:24;;;;;;;36.80;22.80;;;4.50;73.50;;;7.20;54.49;102066.25;5063388;28;20202;-59
2022/12/04 10:23:06;;;;;;;37.73;23.10;;;4.60;73.50;;;7.20;54.69;102063.63;5058975;28;20692;-59
2022/12/04 10:25:43;;;;;;;39.63;24.23;;;4.50;73.60;;;7.24;54.44;102067.66;5097479;28;20193;-59
2022/12/04 10:28:23;;;;;;;35.17;21.37;;;4.50;73.80;;;7.26;54.30;102056.13;5098483;28;20208;-60
2022/12/04 10:30:56;;;;;;;37.07;23.63;;;4.50;73.90;;;7.27;54.71;102056.97;5099669;28;20231;-58
2022/12/04 10:33:35;;;;;;;36.27;22.77;;;4.50;73.90;;;7.29;55.21;102057.69;5077482;28;20519;-59
2022/12/04 10:36:04;;;;;;;38.60;23.17;;;4.50;74.00;;;7.33;55.12;102061.72;5079153;28;20191;-59
2022/12/04 10:38:39;;;;;;;40.40;24.43;;;4.50;74.10;;;7.32;54.60;102073.97;5077654;28;20258;-57
2022/12/04 10:41:17;;;;;;;34.43;22.40;;;4.50;74.10;;;7.35;54.35;102054.56;5080261;28;20205;-59